Colliers, South Carolina
Current Conditions -  °F | °C
As of 11:53 PM on Wednesday 22 Oct 2014 (Local Time) from KDNL Reporting Station
Clear Clear  
Wind Chill: 55°   Ceiling: Unl
Heat Index: 55°   Visibility: 10mi
Dew Point: 42°   Wind: 6mph
Humidity: 62%   Direction: 360°N
Pressure: 30.11"   Gusts: NA
Location:  33.727°N, 82.1937°W
Report Text: KDNL 230353Z AUTO 36005KT 10SM CLR 13/06 A3011 RMK AO2 SLP195 T01280056
Loading
Personal Weather Stations






























Interactive Weather Map
Tropical Storm Tracking
New forecast layout! Learn more

10-Day Weather Forecast

Advertisements
Track Severe Weather on mobile